createdAt,value
2023-04-19T00:02:25.876Z,102797.47
2023-04-19T00:04:56.440Z,102786.30
2023-04-19T00:07:26.384Z,102796.78
2023-04-19T00:09:56.229Z,102789.16
2023-04-19T00:12:26.460Z,102799.06
2023-04-19T00:14:56.242Z,102787.27
2023-04-19T00:17:27.242Z,102791.63
2023-04-19T00:19:57.690Z,102790.09
2023-04-19T00:22:27.703Z,102791.78
2023-04-19T00:24:57.542Z,102776.69
2023-04-19T00:27:27.703Z,102778.65
2023-04-19T00:29:57.735Z,102775.95
2023-04-19T00:32:27.674Z,102774.55
2023-04-19T00:34:57.225Z,102774.55
2023-04-19T00:37:27.032Z,102777.52
2023-04-19T00:39:56.842Z,102775.68
2023-04-19T00:42:28.063Z,102766.95
2023-04-19T00:44:57.942Z,102762.86
2023-04-19T00:47:27.890Z,102763.95
2023-04-19T00:49:57.936Z,102754.45
2023-04-19T00:52:28.417Z,102758.93
2023-04-19T00:54:59.965Z,102751.54
2023-04-19T00:57:31.295Z,102760.08
2023-04-19T01:00:02.163Z,102758.07
2023-04-19T01:02:32.306Z,102753.34
2023-04-19T01:05:02.311Z,102751.67
2023-04-19T01:07:34.032Z,102749.23
2023-04-19T01:10:06.002Z,102745.73
2023-04-19T01:12:36.022Z,102744.71
2023-04-19T01:15:07.890Z,102753.66
2023-04-19T01:17:38.635Z,102745.14
2023-04-19T01:20:10.610Z,102740.17
2023-04-19T01:22:40.714Z,102746.84
2023-04-19T01:25:11.433Z,102747.73
2023-04-19T01:27:41.274Z,102746.61
2023-04-19T01:30:13.507Z,102739.13
2023-04-19T01:32:43.661Z,102740.70
2023-04-19T01:35:14.007Z,102741.20
2023-04-19T01:37:43.850Z,102740.52
2023-04-19T01:40:15.274Z,102729.48
2023-04-19T01:42:45.171Z,102737.00
2023-04-19T01:45:14.753Z,102723.69
2023-04-19T01:47:45.025Z,102723.69
2023-04-19T01:50:14.816Z,102736.72
2023-04-19T01:52:44.420Z,102741.67
2023-04-19T01:55:14.028Z,102739.16
2023-04-19T01:57:43.829Z,102744.09
2023-04-19T02:00:15.529Z,102746.21
2023-04-19T02:02:44.932Z,102746.21
2023-04-19T02:05:15.194Z,102746.50
2023-04-19T02:07:44.989Z,102753.22
2023-04-19T02:10:14.689Z,102745.13
2023-04-19T02:12:44.607Z,102744.69
2023-04-19T02:15:14.625Z,102745.64
2023-04-19T02:17:46.528Z,102745.08
2023-04-19T02:20:16.286Z,102742.80
2023-04-19T02:22:47.761Z,102745.86
2023-04-19T02:25:19.350Z,102743.47
2023-04-19T02:27:49.179Z,102742.27
2023-04-19T02:30:20.297Z,102744.45
2023-04-19T02:32:54.871Z,102743.15
2023-04-19T02:35:24.590Z,102748.84
2023-04-19T02:37:54.449Z,102749.57
2023-04-19T02:40:25.606Z,102740.53
2023-04-19T02:42:55.692Z,102735.64
2023-04-19T02:45:25.603Z,102743.49
2023-04-19T02:47:57.183Z,102745.13
2023-04-19T02:50:28.759Z,102744.97
2023-04-19T02:52:59.279Z,102747.98
2023-04-19T02:55:29.767Z,102753.09
2023-04-19T02:58:06.290Z,102742.52
2023-04-19T03:00:37.900Z,102742.52
2023-04-19T03:03:09.830Z,102743.88
2023-04-19T03:05:40.045Z,102741.45
2023-04-19T03:08:11.995Z,102744.67
2023-04-19T03:10:42.007Z,102745.93
2023-04-19T03:13:11.806Z,102748.92
2023-04-19T03:15:42.349Z,102746.08
2023-04-19T03:18:12.800Z,102747.08
2023-04-19T03:20:43.982Z,102747.69
2023-04-19T03:23:13.805Z,102750.66
2023-04-19T03:25:43.687Z,102741.00
2023-04-19T03:28:18.082Z,102741.18
2023-04-19T03:31:02.610Z,102733.62
2023-04-19T03:33:32.462Z,102738.66
2023-04-19T03:36:02.346Z,102740.00
2023-04-19T03:38:32.493Z,102747.52
2023-04-19T03:41:02.405Z,102744.97
2023-04-19T03:43:33.948Z,102739.52
2023-04-19T03:46:05.174Z,102737.78
2023-04-19T03:48:35.641Z,102738.91
2023-04-19T03:51:05.595Z,102743.33
2023-04-19T03:53:36.388Z,102740.77
2023-04-19T03:56:08.744Z,102731.75
2023-04-19T03:58:40.553Z,102729.92
2023-04-19T04:01:12.175Z,102734.71
2023-04-19T04:03:42.180Z,102734.91
2023-04-19T04:06:12.235Z,102735.30
2023-04-19T04:08:42.151Z,102737.80
2023-04-19T04:11:12.332Z,102738.70
2023-04-19T04:13:43.071Z,102739.73
2023-04-19T04:16:17.352Z,102740.59
2023-04-19T04:18:47.295Z,102736.47
2023-04-19T04:21:17.189Z,102735.56
2023-04-19T04:23:49.737Z,102735.56
2023-04-19T04:26:28.652Z,102743.66
2023-04-19T04:29:01.932Z,102734.26
2023-04-19T04:31:32.083Z,102733.66
2023-04-19T04:34:02.200Z,102738.44
2023-04-19T04:36:32.970Z,102732.98
2023-04-19T04:39:03.686Z,102739.92
2023-04-19T04:41:35.280Z,102739.63
2023-04-19T04:44:12.583Z,102729.84
2023-04-19T04:46:40.955Z,102728.80
2023-04-19T04:49:11.941Z,102735.30
2023-04-19T04:51:43.485Z,102736.54
2023-04-19T04:54:13.597Z,102733.22
2023-04-19T04:56:43.940Z,102729.79
2023-04-19T04:59:14.179Z,102743.19
2023-04-19T05:01:46.038Z,102737.71
2023-04-19T05:04:16.349Z,102735.88
2023-04-19T05:06:46.766Z,102737.36
2023-04-19T05:09:18.282Z,102746.83
2023-04-19T05:11:48.525Z,102755.83
2023-04-19T05:14:18.485Z,102750.36
2023-04-19T05:16:48.423Z,102752.58
2023-04-19T05:19:18.307Z,102749.96
2023-04-19T05:21:50.254Z,102754.47
2023-04-19T05:24:20.281Z,102752.53
2023-04-19T05:26:50.693Z,102755.07
2023-04-19T05:29:20.767Z,102756.66
2023-04-19T05:31:52.644Z,102762.92
2023-04-19T05:34:26.694Z,102762.67
2023-04-19T05:36:57.477Z,102767.89
2023-04-19T05:39:28.473Z,102762.29
2023-04-19T05:42:00.502Z,102761.95
2023-04-19T05:44:30.354Z,102763.98
2023-04-19T05:47:00.668Z,102763.25
2023-04-19T05:49:34.845Z,102766.36
2023-04-19T05:52:21.329Z,102764.73
2023-04-19T05:54:52.614Z,102755.55
2023-04-19T05:57:22.307Z,102749.97
2023-04-19T05:59:52.116Z,102758.72
2023-04-19T06:02:23.447Z,102758.46
2023-04-19T06:04:53.680Z,102752.83
2023-04-19T06:07:31.670Z,102751.84
2023-04-19T06:09:55.229Z,102757.33
2023-04-19T06:12:25.084Z,102754.12
2023-04-19T06:14:56.116Z,102758.44
2023-04-19T06:17:26.329Z,102757.44
2023-04-19T06:19:56.750Z,102753.08
2023-04-19T06:22:26.814Z,102735.23
2023-04-19T06:24:56.614Z,102735.23
2023-04-19T06:27:26.322Z,102743.03
2023-04-19T06:29:56.172Z,102750.08
2023-04-19T06:32:26.068Z,102754.41
2023-04-19T06:34:55.995Z,102758.96
2023-04-19T06:37:25.851Z,102753.67
2023-04-19T06:39:55.681Z,102753.67
2023-04-19T06:42:26.223Z,102754.87
2023-04-19T06:44:58.485Z,102759.74
2023-04-19T06:47:28.550Z,102757.05
2023-04-19T06:49:58.615Z,102757.05
2023-04-19T06:52:29.642Z,102755.55
2023-04-19T06:54:59.420Z,102765.43
2023-04-19T06:57:29.256Z,102759.79
2023-04-19T06:59:59.119Z,102737.92
2023-04-19T07:02:28.857Z,102752.37
2023-04-19T07:04:59.048Z,102758.45
2023-04-19T07:07:28.880Z,102761.73
2023-04-19T07:09:58.694Z,102764.44
2023-04-19T07:12:28.452Z,102759.03
2023-04-19T07:14:58.598Z,102761.78
2023-04-19T07:17:28.507Z,102755.80
2023-04-19T07:19:58.371Z,102754.97
2023-04-19T07:22:28.561Z,102757.68
2023-04-19T07:24:58.638Z,102757.17
2023-04-19T07:27:28.673Z,102763.83
2023-04-19T07:29:58.225Z,102763.83
2023-04-19T07:32:28.001Z,102764.81
2023-04-19T07:34:57.836Z,102758.84
2023-04-19T07:37:28.430Z,102747.66
2023-04-19T07:39:58.237Z,102759.34
2023-04-19T07:42:29.784Z,102763.09
2023-04-19T07:45:00.152Z,102757.79
2023-04-19T07:47:29.974Z,102758.93
2023-04-19T07:49:59.900Z,102754.89
2023-04-19T07:52:29.738Z,102756.78
2023-04-19T07:54:59.605Z,102761.43
2023-04-19T07:57:29.416Z,102756.24
2023-04-19T07:59:59.618Z,102765.33
2023-04-19T08:02:29.602Z,102761.20
2023-04-19T08:04:59.302Z,102757.35
2023-04-19T08:07:29.321Z,102762.77
2023-04-19T08:09:59.167Z,102766.14
2023-04-19T08:12:38.323Z,102758.53
2023-04-19T08:15:07.847Z,102762.69
2023-04-19T08:17:41.418Z,102762.69
2023-04-19T08:20:06.964Z,102762.88
2023-04-19T08:22:36.830Z,102757.80
2023-04-19T08:25:09.353Z,102759.57
2023-04-19T08:27:39.309Z,102751.86
2023-04-19T08:30:11.631Z,102751.27
2023-04-19T08:32:41.516Z,102749.05
2023-04-19T08:35:11.829Z,102755.98
2023-04-19T08:37:41.685Z,102740.66
2023-04-19T08:40:11.489Z,102750.75
2023-04-19T08:42:41.419Z,102730.88
2023-04-19T08:47:58.946Z,102748.27
2023-04-19T08:50:28.862Z,102744.86
2023-04-19T08:52:55.870Z,102748.01
2023-04-19T08:55:22.362Z,102741.59
2023-04-19T08:57:52.671Z,102742.58
2023-04-19T09:00:22.976Z,102736.98
2023-04-19T09:02:56.119Z,102730.85
2023-04-19T09:05:26.596Z,102730.85
2023-04-19T09:07:58.074Z,102739.64
2023-04-19T09:10:28.304Z,102732.91
2023-04-19T09:13:03.001Z,102741.67
2023-04-19T09:15:41.703Z,102734.17
2023-04-19T09:18:12.023Z,102736.14
2023-04-19T09:20:45.597Z,102733.62
2023-04-19T09:23:18.125Z,102729.95
2023-04-19T09:28:30.856Z,102727.25
2023-04-19T09:31:10.951Z,102733.66
2023-04-19T09:33:39.756Z,102725.97
2023-04-19T09:36:13.634Z,102727.12
2023-04-19T09:38:50.499Z,102730.77
2023-04-19T09:41:20.764Z,102732.72
2023-04-19T09:44:02.262Z,102720.86
2023-04-19T09:46:38.301Z,102720.86
2023-04-19T09:49:27.224Z,102738.82
2023-04-19T09:51:52.915Z,102729.42
2023-04-19T09:54:24.693Z,102731.64
2023-04-19T09:56:57.431Z,102726.45
2023-04-19T09:59:25.997Z,102720.81
2023-04-19T10:01:57.152Z,102723.21
2023-04-19T10:04:38.185Z,102735.63
2023-04-19T10:07:28.518Z,102726.26
2023-04-19T10:09:34.090Z,102729.66
2023-04-19T10:12:18.470Z,102732.87
2023-04-19T10:14:37.673Z,102726.97
2023-04-19T10:17:08.031Z,102726.32
2023-04-19T10:19:40.424Z,102720.14
2023-04-19T10:22:14.286Z,102705.77
2023-04-19T10:25:03.320Z,102705.77
2023-04-19T10:27:35.706Z,102716.41
2023-04-19T10:30:11.388Z,102719.25
2023-04-19T10:32:42.495Z,102715.73
2023-04-19T10:35:23.538Z,102712.61
2023-04-19T10:38:16.402Z,102714.70
2023-04-19T10:41:01.584Z,102707.30
2023-04-19T10:43:34.292Z,102700.42
2023-04-19T10:46:12.786Z,102706.12
2023-04-19T10:48:56.668Z,102701.36
2023-04-19T10:51:31.457Z,102694.89
2023-04-19T10:54:02.489Z,102696.09
2023-04-19T10:56:39.309Z,102700.67
2023-04-19T10:59:16.123Z,102695.53
2023-04-19T11:01:54.221Z,102687.63
2023-04-19T11:04:27.502Z,102689.98
2023-04-19T11:07:01.718Z,102693.33
2023-04-19T11:09:39.533Z,102689.84
2023-04-19T11:12:13.617Z,102668.52
2023-04-19T11:14:46.029Z,102670.54
2023-04-19T11:17:31.129Z,102671.50
2023-04-19T11:20:09.806Z,102669.92
2023-04-19T11:22:45.551Z,102674.03
2023-04-19T11:25:20.579Z,102662.77
2023-04-19T11:27:52.249Z,102667.75
2023-04-19T11:30:23.579Z,102664.80
2023-04-19T11:32:58.186Z,102665.94
2023-04-19T11:35:30.438Z,102652.53
2023-04-19T11:38:01.611Z,102638.28
2023-04-19T11:40:32.668Z,102636.47
2023-04-19T11:43:04.864Z,102633.18
2023-04-19T11:45:40.246Z,102625.61
2023-04-19T11:48:16.175Z,102627.36
2023-04-19T11:50:48.587Z,102614.38
2023-04-19T11:53:22.751Z,102618.09
2023-04-19T11:56:01.086Z,102616.37
2023-04-19T11:58:36.374Z,102606.36
2023-04-19T12:01:12.519Z,102604.25
2023-04-19T12:03:45.015Z,102603.84
2023-04-19T12:06:17.207Z,102600.09
2023-04-19T12:08:52.108Z,102600.09
2023-04-19T12:11:24.766Z,102597.56
2023-04-19T12:14:15.120Z,102593.65
2023-04-19T12:16:47.996Z,102595.39
2023-04-19T12:19:20.657Z,102578.97
2023-04-19T12:21:50.942Z,102582.93
2023-04-19T12:24:20.816Z,102586.53
2023-04-19T12:26:58.975Z,102575.30
2023-04-19T12:29:29.507Z,102565.48
2023-04-19T12:31:59.377Z,102560.70
2023-04-19T12:34:29.474Z,102573.03
2023-04-19T12:36:59.328Z,102554.14
2023-04-19T12:39:29.110Z,102563.25
2023-04-19T12:41:58.996Z,102561.25
2023-04-19T12:44:28.908Z,102551.45
2023-04-19T12:46:58.702Z,102551.45
2023-04-19T12:49:28.595Z,102554.02
2023-04-19T12:51:58.396Z,102549.79
2023-04-19T12:54:27.915Z,102552.53
2023-04-19T12:56:57.995Z,102552.94
2023-04-19T12:59:27.815Z,102546.25
2023-04-19T13:01:58.298Z,102536.57
2023-04-19T13:04:28.112Z,102537.82
2023-04-19T13:06:57.930Z,102534.69
2023-04-19T13:09:29.779Z,102528.44
2023-04-19T13:11:59.858Z,102515.33
2023-04-19T13:14:29.918Z,102523.56
2023-04-19T13:16:59.957Z,102520.27
2023-04-19T13:19:29.807Z,102512.91
2023-04-19T13:21:59.607Z,102506.05
2023-04-19T13:24:29.152Z,102503.98
2023-04-19T13:26:59.016Z,102513.32
2023-04-19T13:29:29.111Z,102498.45
2023-04-19T13:31:59.404Z,102496.97
2023-04-19T13:34:29.226Z,102496.48
2023-04-19T13:36:59.500Z,102501.78
2023-04-19T13:39:29.301Z,102502.45
2023-04-19T13:41:59.264Z,102485.88
2023-04-19T13:44:29.978Z,102493.61
2023-04-19T13:46:59.903Z,102484.58
2023-04-19T13:49:29.813Z,102482.19
2023-04-19T13:51:59.629Z,102481.56
2023-04-19T13:54:29.444Z,102477.23
2023-04-19T13:56:59.315Z,102479.27
2023-04-19T13:59:30.192Z,102470.22
2023-04-19T14:02:00.084Z,102474.49
2023-04-19T14:04:30.201Z,102456.95
2023-04-19T14:07:00.286Z,102460.04
2023-04-19T14:09:30.131Z,102459.76
2023-04-19T14:12:00.260Z,102457.19
2023-04-19T14:14:32.000Z,102442.91
2023-04-19T14:17:01.996Z,102438.45
2023-04-19T14:19:31.777Z,102432.38
2023-04-19T14:22:01.707Z,102429.21
2023-04-19T14:24:31.572Z,102419.87
2023-04-19T14:29:32.552Z,102401.59
2023-04-19T14:32:16.681Z,102404.19
2023-04-19T14:34:33.969Z,102397.22
2023-04-19T14:37:03.794Z,102397.22
2023-04-19T14:39:33.587Z,102402.28
2023-04-19T14:42:03.378Z,102398.80
2023-04-19T14:44:33.214Z,102394.25
2023-04-19T14:47:03.003Z,102390.73
2023-04-19T14:49:32.822Z,102396.34
2023-04-19T14:52:03.837Z,102391.92
2023-04-19T14:54:33.757Z,102392.77
2023-04-19T14:57:04.318Z,102396.80
2023-04-19T14:59:34.229Z,102389.63
2023-04-19T15:02:06.444Z,102384.19
2023-04-19T15:04:40.817Z,102387.34
2023-04-19T15:07:08.635Z,102389.41
2023-04-19T15:09:38.723Z,102379.42
2023-04-19T15:12:09.677Z,102376.94
2023-04-19T15:14:40.388Z,102376.24
2023-04-19T15:17:10.204Z,102367.94
2023-04-19T15:19:40.352Z,102366.66
2023-04-19T15:22:11.414Z,102358.97
2023-04-19T15:24:41.523Z,102358.97
2023-04-19T15:27:11.332Z,102360.35
2023-04-19T15:32:10.357Z,102355.44
2023-04-19T15:34:40.213Z,102354.97
2023-04-19T15:37:10.100Z,102349.94
2023-04-19T15:39:39.932Z,102350.77
2023-04-19T15:42:11.502Z,102350.77
2023-04-19T15:44:43.568Z,102352.52
2023-04-19T15:47:13.212Z,102342.44
2023-04-19T15:49:43.304Z,102335.28
2023-04-19T15:52:13.133Z,102341.52
2023-04-19T15:54:42.992Z,102340.27
2023-04-19T15:57:12.810Z,102343.02
2023-04-19T15:59:42.903Z,102338.04
2023-04-19T16:02:12.527Z,102337.60
2023-04-19T16:04:42.591Z,102341.20
2023-04-19T16:07:12.547Z,102337.91
2023-04-19T16:09:42.616Z,102337.41
2023-04-19T16:12:14.421Z,102334.23
2023-04-19T16:14:44.206Z,102334.53
2023-04-19T16:17:14.042Z,102332.20
2023-04-19T16:19:43.854Z,102336.11
2023-04-19T16:22:13.386Z,102338.98
2023-04-19T16:24:43.276Z,102336.75
2023-04-19T16:27:13.708Z,102340.58
2023-04-19T16:29:43.497Z,102327.32
2023-04-19T16:32:13.126Z,102324.16
2023-04-19T16:34:42.628Z,102330.52
2023-04-19T16:37:12.438Z,102330.52
2023-04-19T16:39:42.405Z,102327.67
2023-04-19T16:42:12.212Z,102322.25
2023-04-19T16:44:41.987Z,102322.56
2023-04-19T16:47:12.021Z,102317.07
2023-04-19T16:49:41.855Z,102309.91
2023-04-19T16:52:11.576Z,102314.89
2023-04-19T16:54:41.076Z,102320.01
2023-04-19T16:57:11.545Z,102319.80
2023-04-19T16:59:41.336Z,102318.95
2023-04-19T17:02:11.982Z,102317.14
2023-04-19T17:04:42.389Z,102311.43
2023-04-19T17:07:12.422Z,102308.78
2023-04-19T17:09:42.280Z,102311.51
2023-04-19T17:12:12.077Z,102305.95
2023-04-19T17:14:41.879Z,102305.31
2023-04-19T17:17:11.688Z,102311.01
2023-04-19T17:19:41.839Z,102312.30
2023-04-19T17:22:11.896Z,102312.07
2023-04-19T17:24:41.757Z,102308.55
2023-04-19T17:27:11.836Z,102301.56
2023-04-19T17:29:41.658Z,102303.64
2023-04-19T17:32:11.627Z,102300.82
2023-04-19T17:34:41.219Z,102299.87
2023-04-19T17:37:11.063Z,102303.38
2023-04-19T17:39:40.864Z,102302.10
2023-04-19T17:42:11.449Z,102302.42
2023-04-19T17:44:41.272Z,102308.66
2023-04-19T17:47:11.048Z,102309.92
2023-04-19T17:49:40.887Z,102309.92
2023-04-19T17:52:11.580Z,102303.05
2023-04-19T17:54:41.396Z,102307.08
2023-04-19T17:57:11.171Z,102307.75
2023-04-19T17:59:41.143Z,102307.63
2023-04-19T18:02:11.018Z,102312.80
2023-04-19T18:04:42.642Z,102306.14
2023-04-19T18:07:12.751Z,102305.73
2023-04-19T18:09:42.537Z,102302.47
2023-04-19T18:12:12.063Z,102309.72
2023-04-19T18:14:41.855Z,102296.58
2023-04-19T18:17:11.644Z,102306.73
2023-04-19T18:19:41.733Z,102312.22
2023-04-19T18:22:11.693Z,102318.33
2023-04-19T18:24:43.140Z,102319.70
2023-04-19T18:27:12.998Z,102322.73
2023-04-19T18:29:42.814Z,102321.98
2023-04-19T18:32:12.349Z,102320.42
2023-04-19T18:34:42.235Z,102328.19
2023-04-19T18:37:18.423Z,102328.80
2023-04-19T18:39:47.961Z,102335.67
2023-04-19T18:42:17.500Z,102339.61
2023-04-19T18:44:52.872Z,102342.42
2023-04-19T18:47:18.831Z,102338.52
2023-04-19T18:50:02.793Z,102337.95
2023-04-19T18:52:20.133Z,102347.80
2023-04-19T18:54:50.490Z,102353.89
2023-04-19T18:57:23.565Z,102353.86
2023-04-19T18:59:52.050Z,102363.94
2023-04-19T19:02:21.904Z,102360.29
2023-04-19T19:04:57.856Z,102363.55
2023-04-19T19:07:35.675Z,102373.25
2023-04-19T19:09:56.693Z,102373.78
2023-04-19T19:12:26.889Z,102359.50
2023-04-19T19:14:57.062Z,102372.37
2023-04-19T19:17:28.279Z,102388.70
2023-04-19T19:19:58.221Z,102389.55
2023-04-19T19:22:28.988Z,102384.25
2023-04-19T19:24:58.907Z,102388.84
2023-04-19T19:27:29.260Z,102386.44
2023-04-19T19:29:59.111Z,102387.97
2023-04-19T19:32:28.941Z,102398.58
2023-04-19T19:35:02.195Z,102398.58
2023-04-19T19:37:30.952Z,102401.87
2023-04-19T19:40:04.185Z,102401.87
2023-04-19T19:42:32.448Z,102400.68
2023-04-19T19:45:05.431Z,102400.98
2023-04-19T19:47:35.709Z,102395.34
2023-04-19T19:52:39.587Z,102410.00
2023-04-19T19:55:11.634Z,102418.90
2023-04-19T20:00:36.779Z,102415.31
2023-04-19T20:05:19.299Z,102418.43
2023-04-19T20:10:20.552Z,102421.80
2023-04-19T20:12:51.836Z,102427.45
2023-04-19T20:15:22.520Z,102433.25
2023-04-19T20:17:52.382Z,102428.52
2023-04-19T20:20:21.960Z,102433.82
2023-04-19T20:22:51.794Z,102438.59
2023-04-19T20:25:21.777Z,102438.06
2023-04-19T20:27:51.709Z,102438.77
2023-04-19T20:30:21.846Z,102438.77
2023-04-19T20:32:51.691Z,102438.74
2023-04-19T20:35:21.475Z,102439.59
2023-04-19T20:37:51.662Z,102444.70
2023-04-19T20:40:22.854Z,102441.48
2023-04-19T20:42:52.678Z,102439.94
2023-04-19T20:45:22.460Z,102444.34
2023-04-19T20:47:54.188Z,102437.36
2023-04-19T20:50:23.866Z,102450.97
2023-04-19T20:52:53.736Z,102443.83
2023-04-19T20:55:23.673Z,102440.04
2023-04-19T20:57:53.839Z,102449.73
2023-04-19T21:00:23.849Z,102445.81
2023-04-19T21:02:53.886Z,102442.03
2023-04-19T21:05:23.928Z,102450.07
2023-04-19T21:07:53.715Z,102454.31
2023-04-19T21:10:23.534Z,102451.23
2023-04-19T21:12:53.333Z,102451.34
2023-04-19T21:15:23.177Z,102451.34
2023-04-19T21:17:53.014Z,102440.86
2023-04-19T21:20:22.886Z,102443.59
2023-04-19T21:22:52.711Z,102436.22
2023-04-19T21:25:22.528Z,102444.75
2023-04-19T21:27:52.719Z,102440.22
2023-04-19T21:30:23.602Z,102437.03
2023-04-19T21:32:54.088Z,102438.89
2023-04-19T21:35:23.898Z,102442.09
2023-04-19T21:37:53.722Z,102444.42
2023-04-19T21:40:23.366Z,102405.38
2023-04-19T21:42:53.220Z,102405.38
2023-04-19T21:45:23.512Z,102440.00
2023-04-19T21:47:53.347Z,102439.66
2023-04-19T21:50:22.959Z,102439.66
2023-04-19T21:52:52.821Z,102436.13
2023-04-19T21:55:22.669Z,102432.50
2023-04-19T21:57:52.754Z,102436.93
2023-04-19T22:00:24.072Z,102442.31
2023-04-19T22:02:54.091Z,102435.34
2023-04-19T22:05:24.272Z,102431.76
2023-04-19T22:07:54.152Z,102430.45
2023-04-19T22:10:24.027Z,102436.23
2023-04-19T22:12:58.541Z,102432.95
2023-04-19T22:15:25.882Z,102437.27
2023-04-19T22:17:57.524Z,102432.16
2023-04-19T22:20:27.278Z,102431.94
2023-04-19T22:22:57.357Z,102432.27
2023-04-19T22:25:27.254Z,102429.31
2023-04-19T22:27:57.084Z,102431.56
2023-04-19T22:30:27.042Z,102431.56
2023-04-19T22:32:56.893Z,102434.23
2023-04-19T22:35:26.762Z,102431.52
2023-04-19T22:37:56.859Z,102438.09
2023-04-19T22:40:26.527Z,102440.11
2023-04-19T22:42:56.319Z,102432.30
2023-04-19T22:45:26.350Z,102432.30
2023-04-19T22:47:56.173Z,102423.92
2023-04-19T22:50:26.223Z,102421.09
2023-04-19T22:52:56.014Z,102424.50
2023-04-19T22:55:25.893Z,102419.47
2023-04-19T22:57:55.992Z,102424.35
2023-04-19T23:00:26.485Z,102419.70
2023-04-19T23:02:58.224Z,102412.83
2023-04-19T23:05:28.343Z,102409.11
2023-04-19T23:07:59.485Z,102411.25
2023-04-19T23:10:29.298Z,102410.69
2023-04-19T23:12:59.281Z,102412.08
2023-04-19T23:15:29.407Z,102409.75
2023-04-19T23:17:59.608Z,102414.48
2023-04-19T23:20:30.075Z,102412.75
2023-04-19T23:22:59.968Z,102411.55
2023-04-19T23:25:30.019Z,102407.66
2023-04-19T23:27:59.825Z,102411.04
2023-04-19T23:30:31.357Z,102401.43
2023-04-19T23:33:01.225Z,102402.98
2023-04-19T23:35:31.127Z,102406.90
2023-04-19T23:38:01.045Z,102404.50
2023-04-19T23:40:31.202Z,102400.77
2023-04-19T23:43:01.117Z,102401.80
2023-04-19T23:45:30.896Z,102393.30
2023-04-19T23:48:00.761Z,102394.39
2023-04-19T23:50:30.926Z,102394.90
2023-04-19T23:53:00.744Z,102385.98
2023-04-19T23:55:30.596Z,102373.66
2023-04-19T23:58:00.412Z,102376.80
